sensor_id;sensor_type;location;lat;lon;timestamp;temperature;humidity
42187;DHT22;27858;51.414;0.018;2023-05-20T00:00:43;12.00;16.50
42187;DHT22;27858;51.414;0.018;2023-05-20T00:03:10;12.00;17.80
42187;DHT22;27858;51.414;0.018;2023-05-20T00:05:37;12.00;21.70
42187;DHT22;27858;51.414;0.018;2023-05-20T00:08:04;12.00;43.30
42187;DHT22;27858;51.414;0.018;2023-05-20T00:10:35;11.90;51.90
42187;DHT22;27858;51.414;0.018;2023-05-20T00:13:02;11.90;67.10
42187;DHT22;27858;51.414;0.018;2023-05-20T00:15:29;11.80;53.00
42187;DHT22;27858;51.414;0.018;2023-05-20T00:17:56;11.80;51.60
42187;DHT22;27858;51.414;0.018;2023-05-20T00:20:23;11.80;49.80
42187;DHT22;27858;51.414;0.018;2023-05-20T00:22:50;11.80;57.80
42187;DHT22;27858;51.414;0.018;2023-05-20T00:25:17;11.70;56.70
42187;DHT22;27858;51.414;0.018;2023-05-20T00:27:44;11.70;73.40
42187;DHT22;27858;51.414;0.018;2023-05-20T00:30:12;11.70;70.90
42187;DHT22;27858;51.414;0.018;2023-05-20T00:32:38;11.70;71.50
42187;DHT22;27858;51.414;0.018;2023-05-20T00:35:06;11.60;90.80
42187;DHT22;27858;51.414;0.018;2023-05-20T00:37:33;11.60;98.90
42187;DHT22;27858;51.414;0.018;2023-05-20T00:40:00;11.50;87.70
42187;DHT22;27858;51.414;0.018;2023-05-20T00:42:27;11.50;87.10
42187;DHT22;27858;51.414;0.018;2023-05-20T00:44:55;11.40;88.60
42187;DHT22;27858;51.414;0.018;2023-05-20T00:47:25;11.40;86.80
42187;DHT22;27858;51.414;0.018;2023-05-20T00:49:53;11.40;98.50
42187;DHT22;27858;51.414;0.018;2023-05-20T00:52:21;11.30;99.90
42187;DHT22;27858;51.414;0.018;2023-05-20T00:54:48;11.20;99.90
42187;DHT22;27858;51.414;0.018;2023-05-20T00:57:16;11.20;99.90
42187;DHT22;27858;51.414;0.018;2023-05-20T00:59:43;11.20;99.90
42187;DHT22;27858;51.414;0.018;2023-05-20T01:02:10;11.20;99.90
42187;DHT22;27858;51.414;0.018;2023-05-20T01:04:37;11.10;99.90
42187;DHT22;27858;51.414;0.018;2023-05-20T01:07:05;11.00;99.90
42187;DHT22;27858;51.414;0.018;2023-05-20T01:09:32;11.00;99.90
42187;DHT22;27858;51.414;0.018;2023-05-20T01:12:18;11.00;99.90
42187;DHT22;27858;51.414;0.018;2023-05-20T01:14:55;10.90;99.90
42187;DHT22;27858;51.414;0.018;2023-05-20T01:17:26;10.90;99.90
42187;DHT22;27858;51.414;0.018;2023-05-20T01:19:54;10.80;99.90
42187;DHT22;27858;51.414;0.018;2023-05-20T01:22:26;10.80;99.90
42187;DHT22;27858;51.414;0.018;2023-05-20T01:24:53;10.80;99.90
42187;DHT22;27858;51.414;0.018;2023-05-20T01:27:21;10.70;99.90
42187;DHT22;27858;51.414;0.018;2023-05-20T01:29:50;10.70;99.90
42187;DHT22;27858;51.414;0.018;2023-05-20T01:32:24;10.60;99.90
42187;DHT22;27858;51.414;0.018;2023-05-20T01:34:52;10.60;99.90
42187;DHT22;27858;51.414;0.018;2023-05-20T01:37:19;10.50;99.90
42187;DHT22;27858;51.414;0.018;2023-05-20T01:39:48;10.50;99.90
42187;DHT22;27858;51.414;0.018;2023-05-20T01:42:16;10.40;99.90
42187;DHT22;27858;51.414;0.018;2023-05-20T01:44:43;10.40;99.90
42187;DHT22;27858;51.414;0.018;2023-05-20T01:47:10;10.30;99.90
42187;DHT22;27858;51.414;0.018;2023-05-20T01:49:37;10.30;99.90
42187;DHT22;27858;51.414;0.018;2023-05-20T01:52:04;10.30;99.90
42187;DHT22;27858;51.414;0.018;2023-05-20T01:54:31;10.20;99.90
42187;DHT22;27858;51.414;0.018;2023-05-20T01:56:58;10.20;99.90
42187;DHT22;27858;51.414;0.018;2023-05-20T01:59:25;10.10;99.90
42187;DHT22;27858;51.414;0.018;2023-05-20T02:01:52;10.00;99.90
42187;DHT22;27858;51.414;0.018;2023-05-20T02:04:19;10.00;99.90
42187;DHT22;27858;51.414;0.018;2023-05-20T02:06:47;10.00;99.90
42187;DHT22;27858;51.414;0.018;2023-05-20T02:09:14;10.00;99.90
42187;DHT22;27858;51.414;0.018;2023-05-20T02:11:41;10.00;99.90
42187;DHT22;27858;51.414;0.018;2023-05-20T02:14:07;9.90;99.90
42187;DHT22;27858;51.414;0.018;2023-05-20T02:16:34;9.90;99.90
42187;DHT22;27858;51.414;0.018;2023-05-20T02:19:01;9.90;99.90
42187;DHT22;27858;51.414;0.018;2023-05-20T02:21:28;9.90;99.90
42187;DHT22;27858;51.414;0.018;2023-05-20T02:23:55;9.80;99.90
42187;DHT22;27858;51.414;0.018;2023-05-20T02:26:22;9.80;99.90
42187;DHT22;27858;51.414;0.018;2023-05-20T02:28:50;9.80;99.90
42187;DHT22;27858;51.414;0.018;2023-05-20T02:31:17;9.80;99.90
42187;DHT22;27858;51.414;0.018;2023-05-20T02:33:44;9.70;99.90
42187;DHT22;27858;51.414;0.018;2023-05-20T02:36:11;9.70;99.90
42187;DHT22;27858;51.414;0.018;2023-05-20T02:38:38;9.60;99.90
42187;DHT22;27858;51.414;0.018;2023-05-20T02:41:05;9.50;99.90
42187;DHT22;27858;51.414;0.018;2023-05-20T02:43:32;9.50;99.90
42187;DHT22;27858;51.414;0.018;2023-05-20T02:45:59;9.40;99.90
42187;DHT22;27858;51.414;0.018;2023-05-20T02:48:26;9.50;99.90
42187;DHT22;27858;51.414;0.018;2023-05-20T02:50:53;9.40;99.90
42187;DHT22;27858;51.414;0.018;2023-05-20T02:53:20;9.50;99.90
42187;DHT22;27858;51.414;0.018;2023-05-20T02:55:47;9.50;99.90
42187;DHT22;27858;51.414;0.018;2023-05-20T02:58:14;9.50;99.90
42187;DHT22;27858;51.414;0.018;2023-05-20T03:00:43;9.60;99.90
42187;DHT22;27858;51.414;0.018;2023-05-20T03:03:10;9.60;99.90
42187;DHT22;27858;51.414;0.018;2023-05-20T03:05:36;9.60;99.90
42187;DHT22;27858;51.414;0.018;2023-05-20T03:08:09;9.60;99.90
42187;DHT22;27858;51.414;0.018;2023-05-20T03:10:37;9.60;99.90
42187;DHT22;27858;51.414;0.018;2023-05-20T03:13:06;9.60;99.90
42187;DHT22;27858;51.414;0.018;2023-05-20T03:15:34;9.60;99.90
42187;DHT22;27858;51.414;0.018;2023-05-20T03:18:02;9.60;99.90
42187;DHT22;27858;51.414;0.018;2023-05-20T03:20:30;9.60;99.90
42187;DHT22;27858;51.414;0.018;2023-05-20T03:23:03;9.60;99.90
42187;DHT22;27858;51.414;0.018;2023-05-20T03:25:30;9.70;99.90
42187;DHT22;27858;51.414;0.018;2023-05-20T03:27:57;9.70;99.90
42187;DHT22;27858;51.414;0.018;2023-05-20T03:30:26;9.90;99.90
42187;DHT22;27858;51.414;0.018;2023-05-20T03:32:53;9.90;99.90
42187;DHT22;27858;51.414;0.018;2023-05-20T03:35:21;10.00;99.90
42187;DHT22;27858;51.414;0.018;2023-05-20T03:37:48;10.10;99.90
42187;DHT22;27858;51.414;0.018;2023-05-20T03:40:17;10.20;99.90
42187;DHT22;27858;51.414;0.018;2023-05-20T03:42:44;10.20;99.90
42187;DHT22;27858;51.414;0.018;2023-05-20T03:45:11;10.20;99.90
42187;DHT22;27858;51.414;0.018;2023-05-20T03:47:38;10.30;99.90
42187;DHT22;27858;51.414;0.018;2023-05-20T03:50:05;10.30;99.90
42187;DHT22;27858;51.414;0.018;2023-05-20T03:52:34;10.30;99.90
42187;DHT22;27858;51.414;0.018;2023-05-20T03:55:01;10.30;99.90
42187;DHT22;27858;51.414;0.018;2023-05-20T03:57:28;10.40;99.90
42187;DHT22;27858;51.414;0.018;2023-05-20T03:59:55;10.40;99.90
42187;DHT22;27858;51.414;0.018;2023-05-20T04:02:22;10.40;99.90
42187;DHT22;27858;51.414;0.018;2023-05-20T04:04:49;10.50;99.90
42187;DHT22;27858;51.414;0.018;2023-05-20T04:07:18;10.50;99.90
42187;DHT22;27858;51.414;0.018;2023-05-20T04:09:46;10.50;99.90
42187;DHT22;27858;51.414;0.018;2023-05-20T04:12:13;10.50;99.90
42187;DHT22;27858;51.414;0.018;2023-05-20T04:14:39;10.50;99.90
42187;DHT22;27858;51.414;0.018;2023-05-20T04:17:08;10.50;99.90
42187;DHT22;27858;51.414;0.018;2023-05-20T04:19:35;10.40;99.90
42187;DHT22;27858;51.414;0.018;2023-05-20T04:22:04;10.40;99.90
42187;DHT22;27858;51.414;0.018;2023-05-20T04:24:30;10.50;99.90
42187;DHT22;27858;51.414;0.018;2023-05-20T04:26:57;10.50;99.90
42187;DHT22;27858;51.414;0.018;2023-05-20T04:29:24;10.50;99.90
42187;DHT22;27858;51.414;0.018;2023-05-20T04:31:51;10.40;99.90
42187;DHT22;27858;51.414;0.018;2023-05-20T04:34:19;10.40;99.90
42187;DHT22;27858;51.414;0.018;2023-05-20T04:36:52;10.40;99.90
42187;DHT22;27858;51.414;0.018;2023-05-20T04:39:19;10.30;99.90
42187;DHT22;27858;51.414;0.018;2023-05-20T04:41:46;10.40;99.90
42187;DHT22;27858;51.414;0.018;2023-05-20T04:44:14;10.40;99.90
42187;DHT22;27858;51.414;0.018;2023-05-20T04:46:40;10.40;99.90
42187;DHT22;27858;51.414;0.018;2023-05-20T04:49:07;10.40;99.90
42187;DHT22;27858;51.414;0.018;2023-05-20T04:51:34;10.50;99.90
42187;DHT22;27858;51.414;0.018;2023-05-20T04:54:01;10.40;99.90
42187;DHT22;27858;51.414;0.018;2023-05-20T04:56:28;10.60;99.90
42187;DHT22;27858;51.414;0.018;2023-05-20T04:58:55;10.60;99.90
42187;DHT22;27858;51.414;0.018;2023-05-20T05:01:22;10.60;99.90
42187;DHT22;27858;51.414;0.018;2023-05-20T05:03:49;10.60;99.90
42187;DHT22;27858;51.414;0.018;2023-05-20T05:06:20;10.60;99.90
42187;DHT22;27858;51.414;0.018;2023-05-20T05:08:47;10.60;99.90
42187;DHT22;27858;51.414;0.018;2023-05-20T05:11:14;10.60;99.90
42187;DHT22;27858;51.414;0.018;2023-05-20T05:13:41;10.70;99.90
42187;DHT22;27858;51.414;0.018;2023-05-20T05:16:08;10.70;99.90
42187;DHT22;27858;51.414;0.018;2023-05-20T05:18:35;10.70;99.90
42187;DHT22;27858;51.414;0.018;2023-05-20T05:21:03;10.70;99.90
42187;DHT22;27858;51.414;0.018;2023-05-20T05:23:31;10.70;99.90
42187;DHT22;27858;51.414;0.018;2023-05-20T05:25:58;10.80;99.90
42187;DHT22;27858;51.414;0.018;2023-05-20T05:28:25;10.80;99.90
42187;DHT22;27858;51.414;0.018;2023-05-20T05:30:55;10.80;99.90
42187;DHT22;27858;51.414;0.018;2023-05-20T05:33:22;10.90;99.90
42187;DHT22;27858;51.414;0.018;2023-05-20T05:35:50;11.00;99.90
42187;DHT22;27858;51.414;0.018;2023-05-20T05:38:17;11.00;99.90
42187;DHT22;27858;51.414;0.018;2023-05-20T05:40:44;11.00;99.90
42187;DHT22;27858;51.414;0.018;2023-05-20T05:43:11;11.00;99.90
42187;DHT22;27858;51.414;0.018;2023-05-20T05:45:38;11.00;99.90
42187;DHT22;27858;51.414;0.018;2023-05-20T05:48:05;11.00;99.90
42187;DHT22;27858;51.414;0.018;2023-05-20T05:50:32;11.10;99.90
42187;DHT22;27858;51.414;0.018;2023-05-20T05:52:59;11.10;99.90
42187;DHT22;27858;51.414;0.018;2023-05-20T05:55:26;11.10;99.90
42187;DHT22;27858;51.414;0.018;2023-05-20T05:57:53;11.10;99.90
42187;DHT22;27858;51.414;0.018;2023-05-20T06:00:20;11.20;99.90
42187;DHT22;27858;51.414;0.018;2023-05-20T06:02:47;11.20;99.90
42187;DHT22;27858;51.414;0.018;2023-05-20T06:05:14;11.20;99.90
42187;DHT22;27858;51.414;0.018;2023-05-20T06:07:41;11.30;99.90
42187;DHT22;27858;51.414;0.018;2023-05-20T06:10:09;11.30;99.90
42187;DHT22;27858;51.414;0.018;2023-05-20T06:12:36;11.40;99.90
42187;DHT22;27858;51.414;0.018;2023-05-20T06:15:03;11.40;99.90
42187;DHT22;27858;51.414;0.018;2023-05-20T06:17:30;11.40;99.90
42187;DHT22;27858;51.414;0.018;2023-05-20T06:19:57;11.50;99.90
42187;DHT22;27858;51.414;0.018;2023-05-20T06:22:27;11.50;99.90
42187;DHT22;27858;51.414;0.018;2023-05-20T06:24:55;11.50;99.90
42187;DHT22;27858;51.414;0.018;2023-05-20T06:27:22;11.60;99.90
42187;DHT22;27858;51.414;0.018;2023-05-20T06:29:49;11.60;99.90
42187;DHT22;27858;51.414;0.018;2023-05-20T06:32:16;11.70;99.90
42187;DHT22;27858;51.414;0.018;2023-05-20T06:34:43;11.60;99.90
42187;DHT22;27858;51.414;0.018;2023-05-20T06:37:11;11.70;99.90
42187;DHT22;27858;51.414;0.018;2023-05-20T06:39:39;11.70;99.90
42187;DHT22;27858;51.414;0.018;2023-05-20T06:42:06;11.70;99.90
42187;DHT22;27858;51.414;0.018;2023-05-20T06:44:32;11.70;99.90
42187;DHT22;27858;51.414;0.018;2023-05-20T06:46:59;11.80;99.90
42187;DHT22;27858;51.414;0.018;2023-05-20T06:49:26;11.80;99.90
42187;DHT22;27858;51.414;0.018;2023-05-20T06:51:54;11.90;99.90
42187;DHT22;27858;51.414;0.018;2023-05-20T06:54:20;11.90;99.90
42187;DHT22;27858;51.414;0.018;2023-05-20T06:56:47;12.00;99.90
42187;DHT22;27858;51.414;0.018;2023-05-20T06:59:14;12.10;99.90
42187;DHT22;27858;51.414;0.018;2023-05-20T07:01:41;12.10;99.90
42187;DHT22;27858;51.414;0.018;2023-05-20T07:04:08;12.00;99.90
42187;DHT22;27858;51.414;0.018;2023-05-20T07:06:35;12.10;99.90
42187;DHT22;27858;51.414;0.018;2023-05-20T07:09:02;12.10;99.90
42187;DHT22;27858;51.414;0.018;2023-05-20T07:11:31;12.10;99.90
42187;DHT22;27858;51.414;0.018;2023-05-20T07:13:57;12.20;99.90
42187;DHT22;27858;51.414;0.018;2023-05-20T07:16:24;12.20;99.90
42187;DHT22;27858;51.414;0.018;2023-05-20T07:18:51;12.30;99.90
42187;DHT22;27858;51.414;0.018;2023-05-20T07:21:19;12.40;99.90
42187;DHT22;27858;51.414;0.018;2023-05-20T07:23:46;12.40;99.90
42187;DHT22;27858;51.414;0.018;2023-05-20T07:26:13;12.60;99.90
42187;DHT22;27858;51.414;0.018;2023-05-20T07:28:40;12.70;99.90
42187;DHT22;27858;51.414;0.018;2023-05-20T07:31:07;12.70;99.90
42187;DHT22;27858;51.414;0.018;2023-05-20T07:33:34;12.90;99.90
42187;DHT22;27858;51.414;0.018;2023-05-20T07:36:01;13.00;99.90
42187;DHT22;27858;51.414;0.018;2023-05-20T07:38:28;13.10;99.90
42187;DHT22;27858;51.414;0.018;2023-05-20T07:40:56;13.20;99.90
42187;DHT22;27858;51.414;0.018;2023-05-20T07:43:26;13.30;99.90
42187;DHT22;27858;51.414;0.018;2023-05-20T07:45:52;13.40;99.90
42187;DHT22;27858;51.414;0.018;2023-05-20T07:48:20;13.50;99.90
42187;DHT22;27858;51.414;0.018;2023-05-20T07:50:47;13.60;99.90
42187;DHT22;27858;51.414;0.018;2023-05-20T07:53:14;13.70;99.90
42187;DHT22;27858;51.414;0.018;2023-05-20T07:55:44;13.90;99.90
42187;DHT22;27858;51.414;0.018;2023-05-20T07:58:11;13.90;99.90
42187;DHT22;27858;51.414;0.018;2023-05-20T08:00:38;13.90;99.90
42187;DHT22;27858;51.414;0.018;2023-05-20T08:03:06;13.90;99.90
42187;DHT22;27858;51.414;0.018;2023-05-20T08:05:36;13.90;99.90
42187;DHT22;27858;51.414;0.018;2023-05-20T08:08:04;13.60;99.90
42187;DHT22;27858;51.414;0.018;2023-05-20T08:10:31;13.60;99.90
42187;DHT22;27858;51.414;0.018;2023-05-20T08:12:58;13.60;99.90
42187;DHT22;27858;51.414;0.018;2023-05-20T08:15:34;13.80;99.90
42187;DHT22;27858;51.414;0.018;2023-05-20T08:18:04;13.70;99.90
42187;DHT22;27858;51.414;0.018;2023-05-20T08:20:31;13.90;99.90
42187;DHT22;27858;51.414;0.018;2023-05-20T08:22:58;14.00;99.90
42187;DHT22;27858;51.414;0.018;2023-05-20T08:25:26;14.20;99.90
42187;DHT22;27858;51.414;0.018;2023-05-20T08:27:53;14.40;99.90
42187;DHT22;27858;51.414;0.018;2023-05-20T08:30:19;14.80;99.90
42187;DHT22;27858;51.414;0.018;2023-05-20T08:32:49;15.10;99.90
42187;DHT22;27858;51.414;0.018;2023-05-20T08:35:20;15.10;99.90
42187;DHT22;27858;51.414;0.018;2023-05-20T08:37:50;15.30;99.90
42187;DHT22;27858;51.414;0.018;2023-05-20T08:40:22;15.50;99.90
42187;DHT22;27858;51.414;0.018;2023-05-20T08:42:50;15.50;99.90
42187;DHT22;27858;51.414;0.018;2023-05-20T08:45:23;15.70;99.90
42187;DHT22;27858;51.414;0.018;2023-05-20T08:47:54;15.80;96.30
42187;DHT22;27858;51.414;0.018;2023-05-20T08:50:21;15.70;76.50
42187;DHT22;27858;51.414;0.018;2023-05-20T08:52:48;15.70;80.90
42187;DHT22;27858;51.414;0.018;2023-05-20T08:57:51;15.60;82.80
42187;DHT22;27858;51.414;0.018;2023-05-20T09:00:21;15.60;99.90
42187;DHT22;27858;51.414;0.018;2023-05-20T09:02:53;15.80;97.70
42187;DHT22;27858;51.414;0.018;2023-05-20T09:05:21;15.90;85.90
42187;DHT22;27858;51.414;0.018;2023-05-20T09:07:48;15.90;86.90
42187;DHT22;27858;51.414;0.018;2023-05-20T09:10:15;15.90;74.90
42187;DHT22;27858;51.414;0.018;2023-05-20T09:12:42;15.90;78.50
42187;DHT22;27858;51.414;0.018;2023-05-20T09:15:10;16.00;95.00
42187;DHT22;27858;51.414;0.018;2023-05-20T09:17:37;15.90;90.00
42187;DHT22;27858;51.414;0.018;2023-05-20T09:20:09;16.00;72.00
42187;DHT22;27858;51.414;0.018;2023-05-20T09:22:37;16.00;83.90
42187;DHT22;27858;51.414;0.018;2023-05-20T09:25:05;16.10;77.50
42187;DHT22;27858;51.414;0.018;2023-05-20T09:27:32;16.20;78.30
42187;DHT22;27858;51.414;0.018;2023-05-20T09:29:59;16.40;88.80
42187;DHT22;27858;51.414;0.018;2023-05-20T09:32:27;16.60;65.50
42187;DHT22;27858;51.414;0.018;2023-05-20T09:34:54;16.60;54.70
42187;DHT22;27858;51.414;0.018;2023-05-20T09:37:24;16.80;58.40
42187;DHT22;27858;51.414;0.018;2023-05-20T09:39:58;17.00;43.30
42187;DHT22;27858;51.414;0.018;2023-05-20T09:42:49;17.20;45.70
42187;DHT22;27858;51.414;0.018;2023-05-20T09:45:19;16.90;29.00
42187;DHT22;27858;51.414;0.018;2023-05-20T09:47:50;17.00;45.30
42187;DHT22;27858;51.414;0.018;2023-05-20T09:50:19;17.30;30.80
42187;DHT22;27858;51.414;0.018;2023-05-20T09:52:48;17.50;24.10
42187;DHT22;27858;51.414;0.018;2023-05-20T09:55:20;17.60;24.80
42187;DHT22;27858;51.414;0.018;2023-05-20T09:57:49;17.60;9.90
42187;DHT22;27858;51.414;0.018;2023-05-20T10:00:16;17.80;1.00
42187;DHT22;27858;51.414;0.018;2023-05-20T10:02:49;17.70;1.00
42187;DHT22;27858;51.414;0.018;2023-05-20T10:05:29;17.80;1.00
42187;DHT22;27858;51.414;0.018;2023-05-20T10:13:59;18.30;1.00
42187;DHT22;27858;51.414;0.018;2023-05-20T10:17:05;18.40;1.00
42187;DHT22;27858;51.414;0.018;2023-05-20T10:19:35;18.40;1.00
42187;DHT22;27858;51.414;0.018;2023-05-20T10:22:04;18.50;1.00
42187;DHT22;27858;51.414;0.018;2023-05-20T10:24:33;18.50;1.00
42187;DHT22;27858;51.414;0.018;2023-05-20T10:27:02;18.70;1.00
42187;DHT22;27858;51.414;0.018;2023-05-20T10:29:50;18.90;1.00
42187;DHT22;27858;51.414;0.018;2023-05-20T10:32:31;18.90;1.00
42187;DHT22;27858;51.414;0.018;2023-05-20T10:35:03;18.90;1.00
42187;DHT22;27858;51.414;0.018;2023-05-20T10:37:33;19.10;1.00
42187;DHT22;27858;51.414;0.018;2023-05-20T10:40:07;19.10;1.00
42187;DHT22;27858;51.414;0.018;2023-05-20T10:42:34;19.30;1.00
42187;DHT22;27858;51.414;0.018;2023-05-20T10:45:01;19.40;1.00
42187;DHT22;27858;51.414;0.018;2023-05-20T10:47:30;19.40;1.00
42187;DHT22;27858;51.414;0.018;2023-05-20T10:49:57;19.30;1.00
42187;DHT22;27858;51.414;0.018;2023-05-20T10:52:24;19.40;99.90
42187;DHT22;27858;51.414;0.018;2023-05-20T10:54:59;19.70;1.00
42187;DHT22;27858;51.414;0.018;2023-05-20T10:57:27;19.80;99.90
42187;DHT22;27858;51.414;0.018;2023-05-20T10:59:55;19.60;99.90
42187;DHT22;27858;51.414;0.018;2023-05-20T11:02:22;19.50;99.90
42187;DHT22;27858;51.414;0.018;2023-05-20T11:04:56;19.60;99.90
42187;DHT22;27858;51.414;0.018;2023-05-20T11:07:30;19.70;99.90
42187;DHT22;27858;51.414;0.018;2023-05-20T11:09:57;19.70;99.90
42187;DHT22;27858;51.414;0.018;2023-05-20T11:12:25;19.60;99.90
42187;DHT22;27858;51.414;0.018;2023-05-20T11:14:53;19.40;99.90
42187;DHT22;27858;51.414;0.018;2023-05-20T11:17:20;19.50;99.90
42187;DHT22;27858;51.414;0.018;2023-05-20T11:19:47;19.60;99.90
42187;DHT22;27858;51.414;0.018;2023-05-20T11:22:14;19.90;99.90
42187;DHT22;27858;51.414;0.018;2023-05-20T11:24:41;20.10;99.90
42187;DHT22;27858;51.414;0.018;2023-05-20T11:27:08;20.10;99.90
42187;DHT22;27858;51.414;0.018;2023-05-20T11:29:35;20.30;99.90
42187;DHT22;27858;51.414;0.018;2023-05-20T11:32:03;20.60;99.90
42187;DHT22;27858;51.414;0.018;2023-05-20T11:34:34;20.80;99.90
42187;DHT22;27858;51.414;0.018;2023-05-20T11:37:08;20.60;99.90
42187;DHT22;27858;51.414;0.018;2023-05-20T11:39:36;20.50;99.90
42187;DHT22;27858;51.414;0.018;2023-05-20T11:42:03;20.40;99.90
42187;DHT22;27858;51.414;0.018;2023-05-20T11:44:32;20.30;99.90
42187;DHT22;27858;51.414;0.018;2023-05-20T11:47:02;20.30;99.90
42187;DHT22;27858;51.414;0.018;2023-05-20T11:49:29;20.30;99.90
42187;DHT22;27858;51.414;0.018;2023-05-20T11:51:56;20.50;99.90
42187;DHT22;27858;51.414;0.018;2023-05-20T11:54:24;20.70;99.90
42187;DHT22;27858;51.414;0.018;2023-05-20T11:56:53;21.00;99.90
42187;DHT22;27858;51.414;0.018;2023-05-20T11:59:23;21.20;99.90
42187;DHT22;27858;51.414;0.018;2023-05-20T12:01:50;21.20;99.90
42187;DHT22;27858;51.414;0.018;2023-05-20T12:04:17;20.90;99.90
42187;DHT22;27858;51.414;0.018;2023-05-20T12:06:44;20.60;99.90
42187;DHT22;27858;51.414;0.018;2023-05-20T12:09:12;20.60;99.90
42187;DHT22;27858;51.414;0.018;2023-05-20T12:11:39;20.70;99.90
42187;DHT22;27858;51.414;0.018;2023-05-20T12:14:08;20.90;99.90
42187;DHT22;27858;51.414;0.018;2023-05-20T12:16:35;21.10;99.90
42187;DHT22;27858;51.414;0.018;2023-05-20T12:19:03;21.20;99.90
42187;DHT22;27858;51.414;0.018;2023-05-20T12:21:30;21.40;99.90
42187;DHT22;27858;51.414;0.018;2023-05-20T12:24:00;21.60;99.90
42187;DHT22;27858;51.414;0.018;2023-05-20T12:26:28;21.80;99.90
42187;DHT22;27858;51.414;0.018;2023-05-20T12:28:56;22.00;99.90
42187;DHT22;27858;51.414;0.018;2023-05-20T12:31:24;22.00;99.90
42187;DHT22;27858;51.414;0.018;2023-05-20T12:33:51;21.70;99.90
42187;DHT22;27858;51.414;0.018;2023-05-20T12:36:18;21.20;99.90
42187;DHT22;27858;51.414;0.018;2023-05-20T12:38:46;21.30;99.90
42187;DHT22;27858;51.414;0.018;2023-05-20T12:41:13;21.50;99.90
42187;DHT22;27858;51.414;0.018;2023-05-20T12:43:41;21.80;99.90
42187;DHT22;27858;51.414;0.018;2023-05-20T12:46:08;22.00;99.90
42187;DHT22;27858;51.414;0.018;2023-05-20T12:48:35;22.30;99.90
42187;DHT22;27858;51.414;0.018;2023-05-20T12:51:03;22.40;99.90
42187;DHT22;27858;51.414;0.018;2023-05-20T12:53:30;22.10;99.90
42187;DHT22;27858;51.414;0.018;2023-05-20T12:55:56;22.10;99.90
42187;DHT22;27858;51.414;0.018;2023-05-20T12:58:23;22.10;99.90
42187;DHT22;27858;51.414;0.018;2023-05-20T13:00:50;22.50;99.90
42187;DHT22;27858;51.414;0.018;2023-05-20T13:03:17;22.60;99.90
42187;DHT22;27858;51.414;0.018;2023-05-20T13:05:44;22.80;99.90
42187;DHT22;27858;51.414;0.018;2023-05-20T13:08:11;22.50;99.90
42187;DHT22;27858;51.414;0.018;2023-05-20T13:10:38;22.30;99.90
42187;DHT22;27858;51.414;0.018;2023-05-20T13:13:05;21.90;99.90
42187;DHT22;27858;51.414;0.018;2023-05-20T13:15:32;21.60;99.90
42187;DHT22;27858;51.414;0.018;2023-05-20T13:17:59;21.30;99.90
42187;DHT22;27858;51.414;0.018;2023-05-20T13:20:28;21.60;99.90
42187;DHT22;27858;51.414;0.018;2023-05-20T13:22:57;22.20;99.90
42187;DHT22;27858;51.414;0.018;2023-05-20T13:25:24;22.90;99.90
42187;DHT22;27858;51.414;0.018;2023-05-20T13:27:51;23.20;99.90
42187;DHT22;27858;51.414;0.018;2023-05-20T13:30:18;23.40;99.90
42187;DHT22;27858;51.414;0.018;2023-05-20T13:32:45;23.00;99.90
42187;DHT22;27858;51.414;0.018;2023-05-20T13:35:12;22.50;99.90
42187;DHT22;27858;51.414;0.018;2023-05-20T13:37:40;22.40;99.90
42187;DHT22;27858;51.414;0.018;2023-05-20T13:40:07;22.00;99.90
42187;DHT22;27858;51.414;0.018;2023-05-20T13:42:34;21.80;99.90
42187;DHT22;27858;51.414;0.018;2023-05-20T13:45:02;22.20;99.90
42187;DHT22;27858;51.414;0.018;2023-05-20T13:47:29;23.00;99.90
42187;DHT22;27858;51.414;0.018;2023-05-20T13:49:56;22.60;99.90
42187;DHT22;27858;51.414;0.018;2023-05-20T13:52:23;22.50;99.90
42187;DHT22;27858;51.414;0.018;2023-05-20T13:54:50;22.30;99.90
42187;DHT22;27858;51.414;0.018;2023-05-20T13:57:17;21.90;99.90
42187;DHT22;27858;51.414;0.018;2023-05-20T13:59:44;22.20;99.90
42187;DHT22;27858;51.414;0.018;2023-05-20T14:02:10;22.70;99.90
42187;DHT22;27858;51.414;0.018;2023-05-20T14:04:37;23.40;99.90
42187;DHT22;27858;51.414;0.018;2023-05-20T14:07:06;24.00;99.90
42187;DHT22;27858;51.414;0.018;2023-05-20T14:09:35;23.80;99.90
42187;DHT22;27858;51.414;0.018;2023-05-20T14:12:03;23.70;99.90
42187;DHT22;27858;51.414;0.018;2023-05-20T14:14:29;23.50;99.90
42187;DHT22;27858;51.414;0.018;2023-05-20T14:16:56;23.00;99.90
42187;DHT22;27858;51.414;0.018;2023-05-20T14:19:25;23.00;99.90
42187;DHT22;27858;51.414;0.018;2023-05-20T14:21:52;23.40;99.90
42187;DHT22;27858;51.414;0.018;2023-05-20T14:24:19;23.40;99.90
42187;DHT22;27858;51.414;0.018;2023-05-20T14:26:49;23.40;99.90
42187;DHT22;27858;51.414;0.018;2023-05-20T14:29:16;23.20;99.90
42187;DHT22;27858;51.414;0.018;2023-05-20T14:31:43;23.10;99.90
42187;DHT22;27858;51.414;0.018;2023-05-20T14:34:10;23.30;99.90
42187;DHT22;27858;51.414;0.018;2023-05-20T14:36:37;23.90;99.90
42187;DHT22;27858;51.414;0.018;2023-05-20T14:39:04;24.50;99.90
42187;DHT22;27858;51.414;0.018;2023-05-20T14:41:31;24.90;99.90
42187;DHT22;27858;51.414;0.018;2023-05-20T14:43:58;25.10;99.90
42187;DHT22;27858;51.414;0.018;2023-05-20T14:46:25;24.80;99.90
42187;DHT22;27858;51.414;0.018;2023-05-20T14:48:52;24.50;99.90
42187;DHT22;27858;51.414;0.018;2023-05-20T14:51:19;23.80;99.90
42187;DHT22;27858;51.414;0.018;2023-05-20T14:53:45;23.50;99.90
42187;DHT22;27858;51.414;0.018;2023-05-20T14:56:12;23.10;99.90
42187;DHT22;27858;51.414;0.018;2023-05-20T14:58:39;22.80;99.90
42187;DHT22;27858;51.414;0.018;2023-05-20T15:01:06;22.90;99.90
42187;DHT22;27858;51.414;0.018;2023-05-20T15:03:33;23.50;99.90
42187;DHT22;27858;51.414;0.018;2023-05-20T15:06:01;23.70;99.90
42187;DHT22;27858;51.414;0.018;2023-05-20T15:08:28;23.20;99.90
42187;DHT22;27858;51.414;0.018;2023-05-20T15:10:56;22.90;99.90
42187;DHT22;27858;51.414;0.018;2023-05-20T15:13:24;22.70;99.90
42187;DHT22;27858;51.414;0.018;2023-05-20T15:15:51;23.10;99.90
42187;DHT22;27858;51.414;0.018;2023-05-20T15:18:18;22.90;99.90
42187;DHT22;27858;51.414;0.018;2023-05-20T15:20:45;22.80;99.90
42187;DHT22;27858;51.414;0.018;2023-05-20T15:23:12;22.50;99.90
42187;DHT22;27858;51.414;0.018;2023-05-20T15:25:38;22.90;99.90
42187;DHT22;27858;51.414;0.018;2023-05-20T15:28:05;23.90;99.90
42187;DHT22;27858;51.414;0.018;2023-05-20T15:30:32;24.50;99.90
42187;DHT22;27858;51.414;0.018;2023-05-20T15:32:59;25.20;99.90
42187;DHT22;27858;51.414;0.018;2023-05-20T15:35:26;24.80;99.90
42187;DHT22;27858;51.414;0.018;2023-05-20T15:37:53;24.20;99.90
42187;DHT22;27858;51.414;0.018;2023-05-20T15:40:20;24.00;99.90
42187;DHT22;27858;51.414;0.018;2023-05-20T15:42:47;24.70;99.90
42187;DHT22;27858;51.414;0.018;2023-05-20T15:45:14;25.50;99.90